sensor_id;sensor_type;location;lat;lon;timestamp;P1;durP1;ratioP1;P2;durP2;ratioP2
46407;SDS011;32110;45.724;21.276;2022-09-12T00:03:37;2.03;;;1.13;;
46407;SDS011;32110;45.724;21.276;2022-09-12T00:06:07;2.50;;;1.35;;
46407;SDS011;32110;45.724;21.276;2022-09-12T00:08:33;3.75;;;1.40;;
46407;SDS011;32110;45.724;21.276;2022-09-12T00:11:02;1.90;;;1.23;;
46407;SDS011;32110;45.724;21.276;2022-09-12T00:13:29;1.67;;;1.13;;
46407;SDS011;32110;45.724;21.276;2022-09-12T00:15:55;2.43;;;1.20;;
46407;SDS011;32110;45.724;21.276;2022-09-12T00:18:20;3.75;;;1.55;;
46407;SDS011;32110;45.724;21.276;2022-09-12T00:20:45;2.03;;;1.30;;
46407;SDS011;32110;45.724;21.276;2022-09-12T00:23:11;2.15;;;1.25;;
46407;SDS011;32110;45.724;21.276;2022-09-12T00:25:42;1.75;;;1.30;;
46407;SDS011;32110;45.724;21.276;2022-09-12T00:28:08;2.33;;;1.10;;
46407;SDS011;32110;45.724;21.276;2022-09-12T00:30:33;2.33;;;1.50;;
46407;SDS011;32110;45.724;21.276;2022-09-12T00:32:59;2.50;;;1.23;;
46407;SDS011;32110;45.724;21.276;2022-09-12T00:35:24;1.70;;;1.40;;
46407;SDS011;32110;45.724;21.276;2022-09-12T00:37:49;3.03;;;1.30;;
46407;SDS011;32110;45.724;21.276;2022-09-12T00:40:14;3.78;;;1.40;;
46407;SDS011;32110;45.724;21.276;2022-09-12T00:42:40;2.03;;;1.17;;
46407;SDS011;32110;45.724;21.276;2022-09-12T00:45:05;1.20;;;1.10;;
46407;SDS011;32110;45.724;21.276;2022-09-12T00:47:30;1.38;;;1.27;;
46407;SDS011;32110;45.724;21.276;2022-09-12T00:49:58;1.30;;;1.20;;
46407;SDS011;32110;45.724;21.276;2022-09-12T00:52:26;2.55;;;1.20;;
46407;SDS011;32110;45.724;21.276;2022-09-12T00:57:53;1.70;;;1.30;;
46407;SDS011;32110;45.724;21.276;2022-09-12T01:00:20;2.63;;;1.45;;
46407;SDS011;32110;45.724;21.276;2022-09-12T01:02:48;1.60;;;1.40;;
46407;SDS011;32110;45.724;21.276;2022-09-12T01:05:14;3.97;;;1.50;;
46407;SDS011;32110;45.724;21.276;2022-09-12T01:07:39;1.60;;;1.38;;
46407;SDS011;32110;45.724;21.276;2022-09-12T01:10:05;5.65;;;1.40;;
46407;SDS011;32110;45.724;21.276;2022-09-12T01:12:31;1.83;;;1.63;;
46407;SDS011;32110;45.724;21.276;2022-09-12T01:14:57;2.38;;;1.80;;
46407;SDS011;32110;45.724;21.276;2022-09-12T01:17:26;1.95;;;1.50;;
46407;SDS011;32110;45.724;21.276;2022-09-12T01:34:54;2.88;;;1.23;;
46407;SDS011;32110;45.724;21.276;2022-09-12T01:42:52;2.67;;;1.67;;
46407;SDS011;32110;45.724;21.276;2022-09-12T01:45:28;3.35;;;1.50;;
46407;SDS011;32110;45.724;21.276;2022-09-12T01:50:33;2.00;;;1.58;;
46407;SDS011;32110;45.724;21.276;2022-09-12T01:53:00;2.50;;;2.00;;
46407;SDS011;32110;45.724;21.276;2022-09-12T01:55:29;3.20;;;1.88;;
46407;SDS011;32110;45.724;21.276;2022-09-12T02:00:24;4.85;;;2.20;;
46407;SDS011;32110;45.724;21.276;2022-09-12T02:02:56;2.30;;;1.90;;
46407;SDS011;32110;45.724;21.276;2022-09-12T02:08:01;3.92;;;1.90;;
46407;SDS011;32110;45.724;21.276;2022-09-12T02:10:32;3.72;;;2.40;;
46407;SDS011;32110;45.724;21.276;2022-09-12T02:13:12;3.10;;;2.22;;
46407;SDS011;32110;45.724;21.276;2022-09-12T02:15:41;4.60;;;2.25;;
46407;SDS011;32110;45.724;21.276;2022-09-12T02:18:08;2.70;;;2.40;;
46407;SDS011;32110;45.724;21.276;2022-09-12T02:20:36;3.40;;;2.40;;
46407;SDS011;32110;45.724;21.276;2022-09-12T02:23:03;3.10;;;2.30;;
46407;SDS011;32110;45.724;21.276;2022-09-12T02:25:29;3.78;;;2.30;;
46407;SDS011;32110;45.724;21.276;2022-09-12T02:28:00;5.47;;;2.70;;
46407;SDS011;32110;45.724;21.276;2022-09-12T02:30:26;4.68;;;2.17;;
46407;SDS011;32110;45.724;21.276;2022-09-12T02:33:00;2.45;;;1.95;;
46407;SDS011;32110;45.724;21.276;2022-09-12T02:35:33;2.70;;;2.10;;
46407;SDS011;32110;45.724;21.276;2022-09-12T02:40:48;4.30;;;2.30;;
46407;SDS011;32110;45.724;21.276;2022-09-12T02:43:13;4.18;;;2.05;;
46407;SDS011;32110;45.724;21.276;2022-09-12T02:45:39;2.95;;;1.80;;
46407;SDS011;32110;45.724;21.276;2022-09-12T02:50:32;1.90;;;1.70;;
46407;SDS011;32110;45.724;21.276;2022-09-12T02:52:59;3.83;;;1.85;;
46407;SDS011;32110;45.724;21.276;2022-09-12T02:55:28;4.43;;;1.90;;
46407;SDS011;32110;45.724;21.276;2022-09-12T02:57:55;2.40;;;1.80;;
46407;SDS011;32110;45.724;21.276;2022-09-12T03:00:21;1.98;;;1.60;;
46407;SDS011;32110;45.724;21.276;2022-09-12T03:05:17;1.88;;;1.58;;
46407;SDS011;32110;45.724;21.276;2022-09-12T03:10:31;2.10;;;1.83;;
46407;SDS011;32110;45.724;21.276;2022-09-12T03:18:30;3.05;;;1.88;;
46407;SDS011;32110;45.724;21.276;2022-09-12T03:23:29;4.32;;;2.30;;
46407;SDS011;32110;45.724;21.276;2022-09-12T03:26:15;3.10;;;2.17;;
46407;SDS011;32110;45.724;21.276;2022-09-12T03:28:44;4.45;;;2.03;;
46407;SDS011;32110;45.724;21.276;2022-09-12T03:31:15;2.75;;;1.88;;
46407;SDS011;32110;45.724;21.276;2022-09-12T03:33:40;2.90;;;2.15;;
46407;SDS011;32110;45.724;21.276;2022-09-12T03:36:09;4.25;;;2.10;;
46407;SDS011;32110;45.724;21.276;2022-09-12T03:38:38;2.55;;;1.83;;
46407;SDS011;32110;45.724;21.276;2022-09-12T03:41:03;4.03;;;1.90;;
46407;SDS011;32110;45.724;21.276;2022-09-12T03:43:29;2.85;;;2.05;;
46407;SDS011;32110;45.724;21.276;2022-09-12T03:45:54;2.63;;;2.20;;
46407;SDS011;32110;45.724;21.276;2022-09-12T03:48:19;3.92;;;2.28;;
46407;SDS011;32110;45.724;21.276;2022-09-12T03:50:45;3.22;;;1.95;;
46407;SDS011;32110;45.724;21.276;2022-09-12T03:53:10;3.27;;;2.20;;
46407;SDS011;32110;45.724;21.276;2022-09-12T03:55:37;7.43;;;2.30;;
46407;SDS011;32110;45.724;21.276;2022-09-12T03:58:03;3.50;;;2.22;;
46407;SDS011;32110;45.724;21.276;2022-09-12T04:00:28;9.80;;;2.70;;
46407;SDS011;32110;45.724;21.276;2022-09-12T04:02:54;4.37;;;2.90;;
46407;SDS011;32110;45.724;21.276;2022-09-12T04:05:20;4.40;;;2.30;;
46407;SDS011;32110;45.724;21.276;2022-09-12T04:07:45;4.17;;;2.70;;
46407;SDS011;32110;45.724;21.276;2022-09-12T04:10:10;3.80;;;2.57;;
46407;SDS011;32110;45.724;21.276;2022-09-12T04:12:35;3.20;;;2.80;;
46407;SDS011;32110;45.724;21.276;2022-09-12T04:15:01;6.07;;;2.67;;
46407;SDS011;32110;45.724;21.276;2022-09-12T04:17:26;5.10;;;3.20;;
46407;SDS011;32110;45.724;21.276;2022-09-12T04:19:51;7.03;;;3.00;;
46407;SDS011;32110;45.724;21.276;2022-09-12T04:22:16;6.83;;;3.30;;
46407;SDS011;32110;45.724;21.276;2022-09-12T04:24:42;6.27;;;3.70;;
46407;SDS011;32110;45.724;21.276;2022-09-12T04:27:07;8.67;;;4.53;;
46407;SDS011;32110;45.724;21.276;2022-09-12T04:29:32;14.23;;;4.50;;
46407;SDS011;32110;45.724;21.276;2022-09-12T04:31:57;7.95;;;5.13;;
46407;SDS011;32110;45.724;21.276;2022-09-12T04:34:23;14.10;;;4.80;;
46407;SDS011;32110;45.724;21.276;2022-09-12T04:36:48;7.80;;;3.50;;
46407;SDS011;32110;45.724;21.276;2022-09-12T04:39:13;8.03;;;3.83;;
46407;SDS011;32110;45.724;21.276;2022-09-12T04:41:39;7.05;;;4.28;;
46407;SDS011;32110;45.724;21.276;2022-09-12T04:44:06;10.20;;;4.65;;
46407;SDS011;32110;45.724;21.276;2022-09-12T04:46:36;9.38;;;4.20;;
46407;SDS011;32110;45.724;21.276;2022-09-12T04:51:28;8.10;;;4.23;;
46407;SDS011;32110;45.724;21.276;2022-09-12T04:53:54;9.07;;;4.25;;
46407;SDS011;32110;45.724;21.276;2022-09-12T04:56:21;8.52;;;4.03;;
46407;SDS011;32110;45.724;21.276;2022-09-12T04:58:47;9.50;;;4.80;;
46407;SDS011;32110;45.724;21.276;2022-09-12T05:01:13;14.50;;;5.57;;
46407;SDS011;32110;45.724;21.276;2022-09-12T05:03:43;44.97;;;24.35;;
46407;SDS011;32110;45.724;21.276;2022-09-12T05:06:10;8.70;;;5.03;;
46407;SDS011;32110;45.724;21.276;2022-09-12T05:08:35;10.00;;;5.10;;
46407;SDS011;32110;45.724;21.276;2022-09-12T05:11:02;6.95;;;4.55;;
46407;SDS011;32110;45.724;21.276;2022-09-12T05:13:28;8.13;;;4.70;;
46407;SDS011;32110;45.724;21.276;2022-09-12T05:15:54;9.13;;;4.60;;
46407;SDS011;32110;45.724;21.276;2022-09-12T05:18:19;13.15;;;5.25;;
46407;SDS011;32110;45.724;21.276;2022-09-12T05:20:45;12.75;;;4.90;;
46407;SDS011;32110;45.724;21.276;2022-09-12T05:23:10;15.30;;;4.80;;
46407;SDS011;32110;45.724;21.276;2022-09-12T05:25:35;7.53;;;4.53;;
46407;SDS011;32110;45.724;21.276;2022-09-12T05:28:01;8.15;;;5.15;;
46407;SDS011;32110;45.724;21.276;2022-09-12T05:30:26;12.30;;;5.32;;
46407;SDS011;32110;45.724;21.276;2022-09-12T05:32:51;7.17;;;4.53;;
46407;SDS011;32110;45.724;21.276;2022-09-12T05:35:17;6.33;;;4.63;;
46407;SDS011;32110;45.724;21.276;2022-09-12T05:37:42;7.47;;;4.18;;
46407;SDS011;32110;45.724;21.276;2022-09-12T05:40:07;9.63;;;4.55;;
46407;SDS011;32110;45.724;21.276;2022-09-12T05:42:33;6.63;;;4.05;;
46407;SDS011;32110;45.724;21.276;2022-09-12T05:44:58;8.70;;;4.10;;
46407;SDS011;32110;45.724;21.276;2022-09-12T05:47:23;4.83;;;3.77;;
46407;SDS011;32110;45.724;21.276;2022-09-12T05:49:49;9.90;;;3.90;;
46407;SDS011;32110;45.724;21.276;2022-09-12T05:52:16;7.50;;;4.60;;
46407;SDS011;32110;45.724;21.276;2022-09-12T05:54:41;7.65;;;4.43;;
46407;SDS011;32110;45.724;21.276;2022-09-12T05:57:07;7.73;;;4.63;;
46407;SDS011;32110;45.724;21.276;2022-09-12T05:59:32;5.60;;;3.97;;
46407;SDS011;32110;45.724;21.276;2022-09-12T06:01:57;7.43;;;4.60;;
46407;SDS011;32110;45.724;21.276;2022-09-12T06:04:23;8.10;;;4.63;;
46407;SDS011;32110;45.724;21.276;2022-09-12T06:06:49;9.15;;;4.10;;
46407;SDS011;32110;45.724;21.276;2022-09-12T06:09:16;8.30;;;4.28;;
46407;SDS011;32110;45.724;21.276;2022-09-12T06:11:41;7.53;;;4.47;;
46407;SDS011;32110;45.724;21.276;2022-09-12T06:14:07;9.27;;;4.38;;
46407;SDS011;32110;45.724;21.276;2022-09-12T06:16:33;8.10;;;4.70;;
46407;SDS011;32110;45.724;21.276;2022-09-12T06:19:03;10.90;;;4.80;;
46407;SDS011;32110;45.724;21.276;2022-09-12T06:21:29;5.70;;;4.65;;
46407;SDS011;32110;45.724;21.276;2022-09-12T06:23:55;8.93;;;4.80;;
46407;SDS011;32110;45.724;21.276;2022-09-12T06:26:22;10.60;;;5.05;;
46407;SDS011;32110;45.724;21.276;2022-09-12T06:28:49;9.63;;;5.57;;
46407;SDS011;32110;45.724;21.276;2022-09-12T06:31:19;7.13;;;5.13;;
46407;SDS011;32110;45.724;21.276;2022-09-12T06:33:46;8.45;;;5.10;;
46407;SDS011;32110;45.724;21.276;2022-09-12T06:36:12;7.88;;;4.97;;
46407;SDS011;32110;45.724;21.276;2022-09-12T06:38:38;8.25;;;5.57;;
46407;SDS011;32110;45.724;21.276;2022-09-12T06:41:04;8.13;;;5.25;;
46407;SDS011;32110;45.724;21.276;2022-09-12T06:43:30;7.03;;;5.40;;
46407;SDS011;32110;45.724;21.276;2022-09-12T06:45:55;7.23;;;5.40;;
46407;SDS011;32110;45.724;21.276;2022-09-12T06:48:21;7.65;;;5.38;;
46407;SDS011;32110;45.724;21.276;2022-09-12T06:50:59;7.25;;;5.60;;
46407;SDS011;32110;45.724;21.276;2022-09-12T06:53:25;10.27;;;5.90;;
46407;SDS011;32110;45.724;21.276;2022-09-12T06:58:40;7.25;;;5.68;;
46407;SDS011;32110;45.724;21.276;2022-09-12T07:03:31;8.13;;;5.53;;
46407;SDS011;32110;45.724;21.276;2022-09-12T07:05:56;8.93;;;5.90;;
46407;SDS011;32110;45.724;21.276;2022-09-12T07:08:22;8.13;;;5.95;;
46407;SDS011;32110;45.724;21.276;2022-09-12T07:10:47;11.45;;;5.70;;
46407;SDS011;32110;45.724;21.276;2022-09-12T07:13:12;10.53;;;6.40;;
46407;SDS011;32110;45.724;21.276;2022-09-12T07:15:38;7.47;;;5.85;;
46407;SDS011;32110;45.724;21.276;2022-09-12T07:18:03;7.97;;;5.78;;
46407;SDS011;32110;45.724;21.276;2022-09-12T07:20:29;12.73;;;5.38;;
46407;SDS011;32110;45.724;21.276;2022-09-12T07:22:58;8.75;;;5.97;;
46407;SDS011;32110;45.724;21.276;2022-09-12T07:25:24;6.70;;;5.13;;
46407;SDS011;32110;45.724;21.276;2022-09-12T07:27:49;9.83;;;5.20;;
46407;SDS011;32110;45.724;21.276;2022-09-12T07:30:16;6.25;;;4.78;;
46407;SDS011;32110;45.724;21.276;2022-09-12T07:32:42;7.63;;;5.10;;
46407;SDS011;32110;45.724;21.276;2022-09-12T07:35:07;6.63;;;4.73;;
46407;SDS011;32110;45.724;21.276;2022-09-12T07:37:32;6.70;;;4.75;;
46407;SDS011;32110;45.724;21.276;2022-09-12T07:39:57;6.47;;;4.80;;
46407;SDS011;32110;45.724;21.276;2022-09-12T07:42:23;8.43;;;5.10;;
46407;SDS011;32110;45.724;21.276;2022-09-12T07:44:49;7.97;;;5.23;;
46407;SDS011;32110;45.724;21.276;2022-09-12T07:47:16;10.98;;;4.95;;
46407;SDS011;32110;45.724;21.276;2022-09-12T07:49:42;7.38;;;4.93;;
46407;SDS011;32110;45.724;21.276;2022-09-12T07:52:07;7.23;;;4.90;;
46407;SDS011;32110;45.724;21.276;2022-09-12T07:54:33;6.18;;;5.35;;
46407;SDS011;32110;45.724;21.276;2022-09-12T07:56:58;5.95;;;4.95;;
46407;SDS011;32110;45.724;21.276;2022-09-12T07:59:23;13.30;;;8.03;;
46407;SDS011;32110;45.724;21.276;2022-09-12T08:01:49;10.50;;;8.10;;
46407;SDS011;32110;45.724;21.276;2022-09-12T08:04:14;13.00;;;8.23;;
46407;SDS011;32110;45.724;21.276;2022-09-12T08:06:39;8.70;;;5.47;;
46407;SDS011;32110;45.724;21.276;2022-09-12T08:09:05;9.05;;;5.30;;
46407;SDS011;32110;45.724;21.276;2022-09-12T08:11:31;10.18;;;5.47;;
46407;SDS011;32110;45.724;21.276;2022-09-12T08:13:57;10.52;;;5.60;;
46407;SDS011;32110;45.724;21.276;2022-09-12T08:16:23;7.90;;;4.78;;
46407;SDS011;32110;45.724;21.276;2022-09-12T08:18:49;6.90;;;4.43;;
46407;SDS011;32110;45.724;21.276;2022-09-12T08:21:16;5.78;;;4.07;;
46407;SDS011;32110;45.724;21.276;2022-09-12T08:23:42;5.22;;;3.97;;
46407;SDS011;32110;45.724;21.276;2022-09-12T08:26:08;4.82;;;3.88;;
46407;SDS011;32110;45.724;21.276;2022-09-12T08:28:33;5.88;;;4.03;;
46407;SDS011;32110;45.724;21.276;2022-09-12T08:31:03;5.28;;;4.30;;
46407;SDS011;32110;45.724;21.276;2022-09-12T08:33:28;6.85;;;3.75;;
46407;SDS011;32110;45.724;21.276;2022-09-12T08:38:29;4.63;;;3.72;;
46407;SDS011;32110;45.724;21.276;2022-09-12T08:40:58;8.57;;;4.67;;
46407;SDS011;32110;45.724;21.276;2022-09-12T08:46:14;11.25;;;5.18;;
46407;SDS011;32110;45.724;21.276;2022-09-12T08:48:48;6.38;;;5.35;;
46407;SDS011;32110;45.724;21.276;2022-09-12T08:51:14;11.25;;;6.47;;
46407;SDS011;32110;45.724;21.276;2022-09-12T08:53:44;5.57;;;4.35;;
46407;SDS011;32110;45.724;21.276;2022-09-12T08:56:11;6.43;;;4.50;;
46407;SDS011;32110;45.724;21.276;2022-09-12T08:58:38;9.98;;;5.68;;
46407;SDS011;32110;45.724;21.276;2022-09-12T09:01:09;15.75;;;10.40;;
46407;SDS011;32110;45.724;21.276;2022-09-12T09:16:37;8.50;;;4.68;;
46407;SDS011;32110;45.724;21.276;2022-09-12T09:19:04;10.88;;;5.63;;
46407;SDS011;32110;45.724;21.276;2022-09-12T09:21:51;7.50;;;5.18;;
46407;SDS011;32110;45.724;21.276;2022-09-12T09:24:20;7.05;;;4.70;;
46407;SDS011;32110;45.724;21.276;2022-09-12T09:27:05;5.45;;;4.70;;
46407;SDS011;32110;45.724;21.276;2022-09-12T09:29:40;5.40;;;4.50;;
46407;SDS011;32110;45.724;21.276;2022-09-12T09:32:13;4.40;;;3.88;;
46407;SDS011;32110;45.724;21.276;2022-09-12T09:34:40;7.38;;;4.90;;
46407;SDS011;32110;45.724;21.276;2022-09-12T09:37:14;5.60;;;4.72;;
46407;SDS011;32110;45.724;21.276;2022-09-12T09:44:49;12.63;;;7.93;;
46407;SDS011;32110;45.724;21.276;2022-09-12T09:47:17;7.03;;;5.10;;
46407;SDS011;32110;45.724;21.276;2022-09-12T09:49:42;4.63;;;4.22;;
46407;SDS011;32110;45.724;21.276;2022-09-12T09:52:09;5.45;;;4.25;;
46407;SDS011;32110;45.724;21.276;2022-09-12T09:54:43;7.57;;;4.55;;
46407;SDS011;32110;45.724;21.276;2022-09-12T09:59:54;5.35;;;4.47;;
46407;SDS011;32110;45.724;21.276;2022-09-12T10:02:20;5.87;;;4.07;;
46407;SDS011;32110;45.724;21.276;2022-09-12T10:04:54;5.38;;;4.10;;
46407;SDS011;32110;45.724;21.276;2022-09-12T10:07:21;7.20;;;3.90;;
46407;SDS011;32110;45.724;21.276;2022-09-12T10:12:40;17.73;;;10.07;;
46407;SDS011;32110;45.724;21.276;2022-09-12T10:15:20;8.40;;;6.22;;
46407;SDS011;32110;45.724;21.276;2022-09-12T10:17:50;13.93;;;6.95;;
46407;SDS011;32110;45.724;21.276;2022-09-12T10:20:36;7.70;;;4.03;;
46407;SDS011;32110;45.724;21.276;2022-09-12T10:26:03;6.45;;;3.97;;
46407;SDS011;32110;45.724;21.276;2022-09-12T10:28:36;5.55;;;4.00;;
46407;SDS011;32110;45.724;21.276;2022-09-12T10:31:05;4.25;;;3.55;;
46407;SDS011;32110;45.724;21.276;2022-09-12T10:33:34;7.15;;;3.45;;
46407;SDS011;32110;45.724;21.276;2022-09-12T10:36:07;4.20;;;3.80;;
46407;SDS011;32110;45.724;21.276;2022-09-12T10:38:33;4.28;;;3.80;;
46407;SDS011;32110;45.724;21.276;2022-09-12T10:48:43;3.47;;;2.90;;
46407;SDS011;32110;45.724;21.276;2022-09-12T10:51:31;3.85;;;3.05;;
46407;SDS011;32110;45.724;21.276;2022-09-12T10:53:59;4.78;;;3.25;;
46407;SDS011;32110;45.724;21.276;2022-09-12T10:56:32;3.88;;;2.90;;
46407;SDS011;32110;45.724;21.276;2022-09-12T11:02:00;8.10;;;3.38;;
46407;SDS011;32110;45.724;21.276;2022-09-12T11:04:51;3.30;;;2.92;;
46407;SDS011;32110;45.724;21.276;2022-09-12T11:10:12;3.80;;;2.40;;
46407;SDS011;32110;45.724;21.276;2022-09-12T11:15:41;4.53;;;2.70;;
46407;SDS011;32110;45.724;21.276;2022-09-12T11:18:48;7.28;;;2.25;;
46407;SDS011;32110;45.724;21.276;2022-09-12T11:26:33;4.70;;;3.45;;
46407;SDS011;32110;45.724;21.276;2022-09-12T11:37:33;2.63;;;2.20;;
46407;SDS011;32110;45.724;21.276;2022-09-12T11:46:16;3.08;;;2.20;;
46407;SDS011;32110;45.724;21.276;2022-09-12T11:51:31;3.25;;;1.80;;
46407;SDS011;32110;45.724;21.276;2022-09-12T11:54:05;2.00;;;1.73;;
46407;SDS011;32110;45.724;21.276;2022-09-12T11:56:48;2.97;;;1.90;;
46407;SDS011;32110;45.724;21.276;2022-09-12T11:59:34;2.45;;;1.80;;
46407;SDS011;32110;45.724;21.276;2022-09-12T12:02:01;2.08;;;1.60;;
46407;SDS011;32110;45.724;21.276;2022-09-12T12:04:42;5.47;;;2.20;;
46407;SDS011;32110;45.724;21.276;2022-09-12T12:07:09;4.20;;;1.80;;
46407;SDS011;32110;45.724;21.276;2022-09-12T12:09:46;2.45;;;1.85;;
46407;SDS011;32110;45.724;21.276;2022-09-12T12:12:15;6.63;;;1.75;;
46407;SDS011;32110;45.724;21.276;2022-09-12T12:14:45;2.78;;;2.00;;
46407;SDS011;32110;45.724;21.276;2022-09-12T12:17:20;2.90;;;1.77;;
46407;SDS011;32110;45.724;21.276;2022-09-12T12:19:46;3.40;;;1.77;;
46407;SDS011;32110;45.724;21.276;2022-09-12T12:22:22;2.55;;;1.50;;
46407;SDS011;32110;45.724;21.276;2022-09-12T12:32:59;1.90;;;1.60;;
46407;SDS011;32110;45.724;21.276;2022-09-12T12:36:04;4.53;;;1.95;;
46407;SDS011;32110;45.724;21.276;2022-09-12T12:38:33;1.80;;;1.52;;
46407;SDS011;32110;45.724;21.276;2022-09-12T12:43:41;3.42;;;1.80;;
46407;SDS011;32110;45.724;21.276;2022-09-12T12:46:15;7.22;;;1.73;;
46407;SDS011;32110;45.724;21.276;2022-09-12T12:48:43;6.38;;;1.70;;
46407;SDS011;32110;45.724;21.276;2022-09-12T12:53:47;4.20;;;1.50;;
46407;SDS011;32110;45.724;21.276;2022-09-12T12:58:56;4.10;;;1.70;;
46407;SDS011;32110;45.724;21.276;2022-09-12T13:01:24;3.25;;;1.60;;
46407;SDS011;32110;45.724;21.276;2022-09-12T13:04:03;4.30;;;1.50;;
46407;SDS011;32110;45.724;21.276;2022-09-12T13:06:37;1.67;;;1.40;;
46407;SDS011;32110;45.724;21.276;2022-09-12T13:09:07;1.92;;;1.60;;
46407;SDS011;32110;45.724;21.276;2022-09-12T13:11:43;4.60;;;1.45;;
46407;SDS011;32110;45.724;21.276;2022-09-12T13:17:00;2.63;;;1.60;;
46407;SDS011;32110;45.724;21.276;2022-09-12T13:19:29;2.85;;;1.38;;
46407;SDS011;32110;45.724;21.276;2022-09-12T13:22:05;5.57;;;1.90;;
46407;SDS011;32110;45.724;21.276;2022-09-12T13:24:32;3.22;;;1.85;;
46407;SDS011;32110;45.724;21.276;2022-09-12T13:26:58;2.33;;;1.80;;
46407;SDS011;32110;45.724;21.276;2022-09-12T13:29:25;6.90;;;2.00;;
46407;SDS011;32110;45.724;21.276;2022-09-12T13:31:53;7.72;;;1.70;;
46407;SDS011;32110;45.724;21.276;2022-09-12T13:34:26;2.47;;;1.67;;
46407;SDS011;32110;45.724;21.276;2022-09-12T13:39:46;2.15;;;1.50;;
46407;SDS011;32110;45.724;21.276;2022-09-12T13:42:33;5.70;;;1.70;;
46407;SDS011;32110;45.724;21.276;2022-09-12T13:45:25;2.45;;;1.90;;
46407;SDS011;32110;45.724;21.276;2022-09-12T13:47:53;2.72;;;1.55;;
46407;SDS011;32110;45.724;21.276;2022-09-12T13:50:26;2.15;;;1.40;;
46407;SDS011;32110;45.724;21.276;2022-09-12T13:53:06;3.25;;;1.90;;
46407;SDS011;32110;45.724;21.276;2022-09-12T13:55:40;2.55;;;1.63;;
46407;SDS011;32110;45.724;21.276;2022-09-12T14:00:58;2.72;;;1.50;;
46407;SDS011;32110;45.724;21.276;2022-09-12T14:03:28;3.03;;;1.67;;
46407;SDS011;32110;45.724;21.276;2022-09-12T14:06:14;4.68;;;1.75;;
46407;SDS011;32110;45.724;21.276;2022-09-12T14:08:40;3.13;;;1.40;;
46407;SDS011;32110;45.724;21.276;2022-09-12T14:11:08;4.38;;;1.38;;
46407;SDS011;32110;45.724;21.276;2022-09-12T14:13:35;1.67;;;1.55;;
46407;SDS011;32110;45.724;21.276;2022-09-12T14:16:03;6.10;;;2.08;;
46407;SDS011;32110;45.724;21.276;2022-09-12T14:18:33;2.53;;;1.67;;
46407;SDS011;32110;45.724;21.276;2022-09-12T14:21:08;3.92;;;2.15;;
46407;SDS011;32110;45.724;21.276;2022-09-12T14:23:40;6.10;;;1.63;;
46407;SDS011;32110;45.724;21.276;2022-09-12T14:26:11;2.47;;;1.80;;
46407;SDS011;32110;45.724;21.276;2022-09-12T14:28:40;4.68;;;1.48;;
46407;SDS011;32110;45.724;21.276;2022-09-12T14:31:58;3.95;;;1.80;;
46407;SDS011;32110;45.724;21.276;2022-09-12T14:34:13;4.68;;;1.40;;
46407;SDS011;32110;45.724;21.276;2022-09-12T14:44:55;2.85;;;1.88;;
46407;SDS011;32110;45.724;21.276;2022-09-12T14:47:25;7.85;;;1.58;;
46407;SDS011;32110;45.724;21.276;2022-09-12T14:49:52;5.10;;;1.52;;
46407;SDS011;32110;45.724;21.276;2022-09-12T14:52:26;4.45;;;1.58;;
46407;SDS011;32110;45.724;21.276;2022-09-12T14:55:18;3.97;;;1.50;;
46407;SDS011;32110;45.724;21.276;2022-09-12T14:57:40;9.18;;;1.95;;
46407;SDS011;32110;45.724;21.276;2022-09-12T15:02:47;4.65;;;1.80;;
46407;SDS011;32110;45.724;21.276;2022-09-12T15:05:16;3.88;;;1.88;;
46407;SDS011;32110;45.724;21.276;2022-09-12T15:07:44;4.88;;;1.88;;
46407;SDS011;32110;45.724;21.276;2022-09-12T15:10:22;4.22;;;1.73;;
46407;SDS011;32110;45.724;21.276;2022-09-12T15:12:49;2.17;;;1.50;;
46407;SDS011;32110;45.724;21.276;2022-09-12T15:15:28;4.15;;;1.77;;
46407;SDS011;32110;45.724;21.276;2022-09-12T15:17:53;3.13;;;1.80;;
46407;SDS011;32110;45.724;21.276;2022-09-12T15:20:18;3.45;;;1.80;;
46407;SDS011;32110;45.724;21.276;2022-09-12T15:22:44;3.92;;;1.58;;
46407;SDS011;32110;45.724;21.276;2022-09-12T15:25:09;4.40;;;1.75;;
46407;SDS011;32110;45.724;21.276;2022-09-12T15:27:36;4.22;;;1.85;;
46407;SDS011;32110;45.724;21.276;2022-09-12T15:30:05;4.80;;;1.63;;
46407;SDS011;32110;45.724;21.276;2022-09-12T15:32:31;3.05;;;1.70;;
46407;SDS011;32110;45.724;21.276;2022-09-12T15:34:57;5.82;;;1.75;;
46407;SDS011;32110;45.724;21.276;2022-09-12T15:37:23;4.05;;;1.60;;
46407;SDS011;32110;45.724;21.276;2022-09-12T15:39:48;4.05;;;1.80;;
46407;SDS011;32110;45.724;21.276;2022-09-12T15:42:15;2.70;;;1.90;;
46407;SDS011;32110;45.724;21.276;2022-09-12T15:44:42;8.90;;;2.58;;
46407;SDS011;32110;45.724;21.276;2022-09-12T15:47:11;11.23;;;2.60;;
46407;SDS011;32110;45.724;21.276;2022-09-12T15:49:38;2.80;;;1.95;;
46407;SDS011;32110;45.724;21.276;2022-09-12T15:52:03;3.17;;;1.92;;
46407;SDS011;32110;45.724;21.276;2022-09-12T15:54:29;4.53;;;2.00;;
46407;SDS011;32110;45.724;21.276;2022-09-12T15:56:54;3.33;;;1.77;;
46407;SDS011;32110;45.724;21.276;2022-09-12T15:59:19;4.45;;;1.70;;
46407;SDS011;32110;45.724;21.276;2022-09-12T16:01:45;3.13;;;1.70;;
46407;SDS011;32110;45.724;21.276;2022-09-12T16:04:21;3.55;;;1.70;;
46407;SDS011;32110;45.724;21.276;2022-09-12T16:06:51;2.97;;;2.25;;
46407;SDS011;32110;45.724;21.276;2022-09-12T16:09:18;2.67;;;1.90;;
46407;SDS011;32110;45.724;21.276;2022-09-12T16:11:44;2.47;;;2.10;;
46407;SDS011;32110;45.724;21.276;2022-09-12T16:14:14;5.20;;;2.78;;
46407;SDS011;32110;45.724;21.276;2022-09-12T16:16:41;3.70;;;2.53;;
46407;SDS011;32110;45.724;21.276;2022-09-12T16:19:08;3.55;;;2.38;;
46407;SDS011;32110;45.724;21.276;2022-09-12T16:21:34;8.40;;;2.47;;
46407;SDS011;32110;45.724;21.276;2022-09-12T16:24:00;5.82;;;2.20;;
46407;SDS011;32110;45.724;21.276;2022-09-12T16:26:26;3.30;;;2.30;;
46407;SDS011;32110;45.724;21.276;2022-09-12T16:28:55;4.88;;;2.08;;
46407;SDS011;32110;45.724;21.276;2022-09-12T16:31:24;4.50;;;1.95;;
46407;SDS011;32110;45.724;21.276;2022-09-12T16:33:50;6.25;;;2.00;;
46407;SDS011;32110;45.724;21.276;2022-09-12T16:36:17;4.13;;;2.00;;
46407;SDS011;32110;45.724;21.276;2022-09-12T16:38:44;11.13;;;4.38;;
46407;SDS011;32110;45.724;21.276;2022-09-12T16:41:11;6.68;;;5.00;;
46407;SDS011;32110;45.724;21.276;2022-09-12T16:43:37;4.97;;;2.80;;
46407;SDS011;32110;45.724;21.276;2022-09-12T16:48:29;8.10;;;2.78;;
46407;SDS011;32110;45.724;21.276;2022-09-12T16:50:56;7.25;;;2.88;;
46407;SDS011;32110;45.724;21.276;2022-09-12T16:53:22;6.10;;;2.10;;
46407;SDS011;32110;45.724;21.276;2022-09-12T16:55:48;6.15;;;2.40;;
46407;SDS011;32110;45.724;21.276;2022-09-12T16:58:14;4.47;;;2.45;;
46407;SDS011;32110;45.724;21.276;2022-09-12T17:00:39;11.68;;;2.70;;
46407;SDS011;32110;45.724;21.276;2022-09-12T17:03:05;7.13;;;2.55;;
46407;SDS011;32110;45.724;21.276;2022-09-12T17:05:30;4.35;;;2.40;;
46407;SDS011;32110;45.724;21.276;2022-09-12T17:07:55;5.05;;;2.70;;
46407;SDS011;32110;45.724;21.276;2022-09-12T17:10:21;6.20;;;2.53;;
46407;SDS011;32110;45.724;21.276;2022-09-12T17:12:47;12.32;;;2.90;;
46407;SDS011;32110;45.724;21.276;2022-09-12T17:15:12;8.43;;;2.90;;
46407;SDS011;32110;45.724;21.276;2022-09-12T17:17:37;10.20;;;2.72;;
46407;SDS011;32110;45.724;21.276;2022-09-12T17:20:03;5.32;;;2.80;;
46407;SDS011;32110;45.724;21.276;2022-09-12T17:22:28;7.80;;;2.90;;
46407;SDS011;32110;45.724;21.276;2022-09-12T17:24:54;7.57;;;3.25;;
46407;SDS011;32110;45.724;21.276;2022-09-12T17:27:19;6.30;;;3.50;;
46407;SDS011;32110;45.724;21.276;2022-09-12T17:29:44;6.57;;;2.65;;